Date,TemperatureHighF,TemperatureAvgF,TemperatureLowF,DewpointHighF,DewpointAvgF,DewpointLowF,HumidityHigh,HumidityAvg,HumidityLow,PressureMaxIn,PressureMinIn,WindSpeedMaxMPH,WindSpeedAvgMPH,GustSpeedMaxMPH,PrecipitationSumIn
2014-1-1,82,77,73,76,72,65,95,84,71,29.98,29.83,10,4,19,0.08
2014-1-2,87,78,71,73,70,66,94,77,51,29.83,29.65,13,3,22,0.00
2014-1-3,74,66,61,72,56,45,92,72,55,29.97,29.67,15,7,25,0.00
2014-1-4,76,72,67,72,65,55,94,80,65,29.97,29.85,10,3,17,0.09
2014-1-5,85,77,70,76,71,67,92,83,70,29.86,29.73,12,3,25,0.04
2014-1-6,86,73,58,74,66,32,96,78,38,29.98,29.74,17,4,27,0.15
2014-1-7,58,54,48,51,43,29,90,69,38,30.09,29.97,17,8,27,0.01
2014-1-8,71,64,51,68,62,49,100,92,84,30.10,29.99,15,6,27,0.20
2014-1-9,79,75,71,76,72,67,97,90,86,30.03,29.91,14,5,24,0.12
2014-1-10,83,78,70,75,73,69,94,86,76,29.95,29.85,11,3,18,0.00
2014-1-11,86,79,73,77,73,71,95,84,69,29.90,29.75,12,4,24,0.00
2014-1-12,85,72,64,72,65,58,95,79,45,29.95,29.81,11,4,17,0.00
2014-1-13,84,76,69,72,69,63,91,79,64,29.94,29.82,9,2,15,0.00
2014-1-14,85,76,68,75,69,66,95,80,57,29.82,29.71,11,3,18,0.00
2014-1-15,73,66,58,67,60,52,96,82,63,29.82,29.72,11,3,16,0.22
2014-1-16,60,56,47,56,43,28,89,64,32,29.94,29.73,17,6,27,0.00
2014-1-17,68,55,44,45,39,34,84,57,39,30.01,29.89,8,3,13,0.00
2014-1-18,68,57,49,51,41,32,78,56,31,30.03,29.93,12,3,19,0.00
2014-1-19,72,56,43,48,37,30,75,52,26,30.08,29.93,9,3,15,0.00
2014-1-20,77,66,54,60,55,47,90,70,50,29.99,29.81,10,2,16,0.00
2014-1-21,75,66,62,63,59,57,92,78,57,29.85,29.66,11,4,17,0.00
2014-1-22,64,57,46,61,42,32,94,61,31,29.96,29.67,14,6,22,0.00
2014-1-23,74,58,44,56,46,33,82,65,45,30.08,29.95,10,4,16,0.00
2014-1-24,71,62,57,56,53,52,88,74,53,30.17,30.00,14,6,23,0.00
2014-1-25,79,65,52,63,56,50,93,75,47,30.01,29.82,9,2,13,0.00
2014-1-26,82,69,56,65,59,52,95,74,39,29.88,29.76,8,2,11,0.00
2014-1-27,87,73,59,70,63,55,95,74,35,29.83,29.70,9,2,14,0.00
2014-1-28,86,73,61,71,67,60,96,81,57,29.87,29.74,10,2,15,0.00
2014-1-29,82,70,66,75,68,64,100,94,76,29.86,29.76,11,3,17,0.13
2014-1-30,70,66,62,70,66,61,100,97,87,29.89,29.81,11,4,17,0.40
2014-1-31,85,76,66,76,73,65,100,90,71,29.87,29.78,9,2,15,1.25
2014-2-1,86,78,72,76,73,71,97,85,64,29.92,29.84,10,2,16,0.00
2014-2-2,85,78,71,76,72,69,100,84,66,29.94,29.83,10,3,17,0.04
2014-2-3,86,79,75,75,73,71,94,84,69,29.90,29.80,11,3,18,0.00
2014-2-4,85,78,73,76,73,70,95,84,68,29.92,29.83,11,4,20,0.00
2014-2-5,87,78,71,75,73,69,96,85,63,29.88,29.78,14,4,24,0.79
2014-2-6,88,78,72,77,72,70,97,84,60,29.90,29.80,8,1,13,0.05
2014-2-7,87,76,69,74,71,68,97,85,60,29.92,29.83,6,2,10,0.00
2014-2-8,90,76,68,76,70,65,100,83,46,29.89,29.76,10,2,15,0.00
2014-2-9,81,70,66,71,66,61,97,87,70,29.87,29.77,11,3,15,0.00
2014-2-10,84,73,64,71,66,63,96,80,60,29.88,29.77,9,3,16,0.00
2014-2-11,86,77,71,74,69,64,92,77,57,29.85,29.76,9,2,17,0.00
2014-2-12,85,73,62,73,67,60,100,81,62,29.83,29.61,17,4,30,0.52
2014-2-13,77,67,57,69,60,49,97,78,54,29.77,29.53,16,6,54,0.02
2014-2-14,74,60,48,52,46,36,93,64,28,29.87,29.74,12,2,17,0.00
2014-2-15,82,67,56,63,56,49,90,71,44,29.92,29.75,13,4,21,0.00
2014-2-16,81,65,50,58,51,45,88,63,31,29.98,29.86,8,2,13,0.00
2014-2-17,81,69,57,62,57,53,89,69,52,30.01,29.92,10,2,15,0.00
2014-2-18,83,72,59,69,60,56,94,69,46,30.02,29.93,8,2,14,0.00
2014-2-19,84,76,70,67,64,61,79,68,51,29.97,29.86,10,3,15,0.00
2014-2-20,85,78,72,72,68,64,86,73,59,29.96,29.85,10,4,18,0.00
2014-2-21,87,79,75,74,72,71,89,80,62,29.89,29.80,13,5,24,0.00
2014-2-22,88,78,69,76,71,67,96,80,55,29.90,29.78,9,2,16,0.00
2014-2-23,89,78,68,75,72,67,96,81,59,29.87,29.77,11,3,17,0.00
2014-2-24,91,79,69,74,70,62,96,75,41,29.82,29.73,10,2,15,0.00
2014-2-25,89,78,70,74,69,63,100,77,44,29.82,29.69,11,3,14,0.00
2014-2-26,88,76,66,72,66,60,96,75,42,29.75,29.54,14,4,22,0.00
2014-2-27,74,74,73,71,71,70,93,91,91,29.59,29.55,8,7,14,0.00
2014-2-28,74,74,74,71,71,71,91,91,91,29.55,29.55,8,8,12,0.00
2014-3-1,74,74,74,71,71,71,91,91,91,29.55,29.55,8,8,12,0.00
2014-3-2,84,76,70,74,67,59,91,76,47,29.92,29.55,9,5,16,0.42
2014-3-3,86,75,63,69,63,59,94,67,44,29.85,29.74,9,2,17,0.00
2014-3-4,86,75,65,67,65,61,95,73,48,29.84,29.73,8,2,11,0.00
2014-3-5,87,76,68,72,68,64,92,77,51,29.80,29.68,11,2,22,0.00
2014-3-6,89,74,66,77,69,65,100,86,51,29.76,29.55,17,4,37,0.37
2014-3-7,82,72,60,70,62,53,97,73,41,29.80,29.55,16,6,28,0.02
2014-3-8,77,65,56,62,55,50,92,73,45,29.91,29.78,9,3,14,0.00
2014-3-9,84,71,62,67,62,59,96,74,48,29.94,29.84,8,2,13,0.00
2014-3-10,67,65,64,63,62,60,92,91,84,29.88,29.83,4,1,7,0.00
2014-3-11,65,65,65,62,62,62,92,92,92,29.84,29.84,1,1,4,0.00
2014-3-12,65,65,65,62,62,62,92,92,92,29.84,29.84,1,1,4,0.00
2014-3-13,65,65,65,62,62,62,92,92,92,29.84,29.84,1,1,4,0.00
2014-3-14,94,74,69,80,58,52,93,58,45,29.92,29.66,11,4,20,0.61
2014-3-15,85,74,60,62,58,53,91,59,38,29.88,29.75,10,2,18,0.00
2014-3-16,84,76,71,68,64,59,79,65,53,29.76,29.52,15,5,27,0.00
2014-3-17,88,80,75,74,71,68,88,77,58,29.55,29.42,14,5,22,0.00
2014-3-18,81,75,67,74,65,57,96,73,48,29.71,29.40,18,6,28,0.25
2014-3-19,85,73,62,69,64,59,94,73,54,29.77,29.68,10,2,14,0.00
2014-3-20,85,76,66,72,68,63,93,77,61,29.75,29.65,10,3,19,0.00
2014-3-21,86,74,62,73,67,60,97,80,60,29.76,29.67,12,3,20,0.00
2014-3-22,84,78,72,75,71,63,94,79,60,29.79,29.67,11,4,19,0.24
2014-3-23,92,80,70,71,67,62,90,67,44,29.76,29.63,11,3,18,0.00
2014-3-24,80,73,67,72,68,63,96,85,63,29.75,29.60,10,3,16,0.14
2014-3-25,85,71,64,73,67,50,100,86,57,29.73,29.51,16,4,25,0.21
2014-3-26,71,63,55,55,49,39,81,62,44,29.96,29.73,15,7,24,0.00
2014-3-27,79,71,60,64,58,52,83,63,49,30.00,29.88,13,5,22,0.00
2014-3-28,85,77,72,72,66,61,85,68,56,29.90,29.75,17,6,26,0.00
2014-3-29,84,78,70,76,73,67,93,85,70,29.80,29.62,16,5,27,0.28
2014-3-30,81,72,62,69,58,42,95,65,29,29.78,29.61,13,4,19,0.01
2014-3-31,82,70,59,64,58,52,87,66,50,29.84,29.76,11,3,16,0.00
2014-4-1,84,72,59,67,60,57,96,70,46,29.88,29.79,11,2,15,0.00
2014-4-2,83,73,62,64,60,57,87,65,46,29.90,29.82,11,3,17,0.00
2014-4-3,84,77,70,66,63,60,73,63,53,29.86,29.76,12,4,17,0.00
2014-4-4,87,78,73,67,65,60,76,63,47,29.78,29.70,12,4,19,0.00
2014-4-5,88,78,68,70,67,64,93,70,47,29.75,29.67,8,2,15,0.00
2014-4-6,88,78,67,70,68,64,95,73,51,29.75,29.63,12,3,18,0.00
2014-4-7,89,81,75,77,73,69,93,77,58,29.70,29.57,13,5,24,0.00
2014-4-8,91,79,68,77,72,64,95,80,53,29.63,29.44,18,7,30,0.19
2014-4-9,79,71,65,66,57,49,90,63,37,29.85,29.58,12,5,24,0.00
2014-4-10,82,73,63,59,55,52,73,55,39,29.96,29.84,12,4,20,0.00
2014-4-11,84,75,66,71,64,57,90,70,52,29.93,29.82,11,3,17,0.05
2014-4-12,85,77,69,68,65,61,86,67,50,29.88,29.77,14,4,22,0.00
2014-4-13,81,75,69,75,71,-32,100,88,71,29.80,29.69,14,4,101,2.44
2014-4-14,89,81,74,76,74,72,96,80,60,29.71,29.60,12,4,20,0.00
2014-4-15,90,80,72,79,74,70,97,84,60,29.64,29.52,14,3,22,0.27
2014-4-16,87,77,71,75,71,68,100,84,65,29.78,29.62,12,5,20,0.17
2014-4-17,84,77,73,77,74,71,100,88,73,29.85,29.73,11,5,20,0.51
2014-4-18,87,80,73,75,73,70,100,81,63,29.80,29.65,12,4,21,0.01
2014-4-19,91,80,69,76,70,61,97,75,49,29.69,29.56,12,5,24,0.21
2014-4-20,83,71,65,66,62,59,86,73,51,29.74,29.64,9,4,15,0.00
2014-4-21,86,72,62,68,64,60,93,76,51,29.74,29.61,13,4,18,0.00
2014-4-22,89,76,68,70,67,65,93,76,49,29.67,29.53,7,2,9,0.00
2014-4-23,91,77,65,72,67,63,94,73,40,29.66,29.56,9,2,14,0.00
2014-4-24,90,79,67,72,68,64,90,70,50,29.72,29.62,10,3,15,0.00
2014-4-25,90,80,69,74,70,65,91,72,44,29.73,29.61,8,2,13,0.00
2014-4-26,92,81,70,75,71,66,91,73,50,29.71,29.62,11,3,17,0.00
2014-4-27,93,82,71,75,69,62,93,66,37,29.73,29.64,9,3,16,0.00
2014-4-28,91,83,78,75,72,66,88,71,49,29.70,29.59,11,4,17,0.00
2014-4-29,90,84,78,78,76,73,90,77,61,29.72,29.56,13,4,23,0.00
2014-4-30,91,84,79,77,76,73,91,78,57,29.77,29.65,12,4,19,0.00
2014-5-1,91,83,79,77,74,70,91,76,56,29.74,29.64,13,4,22,0.00
2014-5-2,91,84,77,75,73,68,89,71,52,29.69,29.55,13,4,22,0.00
2014-5-3,90,78,73,76,73,70,100,84,54,29.70,29.60,13,2,23,0.51
2014-5-4,86,77,68,74,65,58,100,70,40,29.76,29.65,13,5,20,0.00
2014-5-5,89,78,68,70,65,59,91,65,44,29.76,29.67,12,3,20,0.00
2014-5-6,90,79,66,70,67,62,94,68,47,29.74,29.67,11,2,14,0.00
2014-5-7,90,82,77,72,69,66,75,64,53,29.85,29.70,12,5,19,0.00
2014-5-8,90,83,78,72,70,67,78,65,53,29.89,29.79,12,6,20,0.00
2014-5-9,89,82,78,73,70,67,76,66,54,29.89,29.79,13,6,21,0.00
2014-5-10,89,82,78,74,72,70,80,71,57,29.85,29.76,12,6,20,0.00
2014-5-11,90,82,78,73,70,64,80,68,51,29.84,29.75,11,4,17,0.00
2014-5-12,90,83,78,73,71,68,77,68,53,29.83,29.75,12,6,20,0.00
2014-5-13,89,81,75,79,75,71,96,81,65,29.76,29.67,14,5,24,0.47
2014-5-14,89,82,77,78,74,70,94,77,59,29.75,29.66,14,5,26,0.11
2014-5-15,86,78,74,80,76,72,100,95,81,29.73,29.62,14,3,21,1.05
2014-5-16,81,75,69,76,69,50,100,82,43,29.79,29.64,11,5,19,0.06
2014-5-17,86,76,66,64,61,58,79,61,43,29.81,29.74,16,6,27,0.00
2014-5-18,86,79,74,67,63,57,67,59,50,29.82,29.75,14,6,25,0.00
2014-5-19,86,80,75,68,65,62,72,61,50,29.85,29.77,15,6,24,0.00
2014-5-20,87,80,75,69,66,62,75,63,50,29.88,29.81,13,5,24,0.00
2014-5-21,91,80,74,68,64,60,69,60,46,29.88,29.81,11,4,18,0.00
2014-5-22,90,80,68,70,66,60,93,64,42,29.85,29.75,7,2,13,0.00
2014-5-23,97,82,71,73,70,66,91,68,39,29.81,29.70,9,2,14,0.00
2014-5-24,96,84,74,74,71,66,88,67,43,29.79,29.70,11,3,17,0.00
2014-5-25,92,83,73,75,73,68,92,72,48,29.83,29.72,10,2,15,0.00
2014-5-26,92,83,74,76,73,70,90,71,54,29.87,29.78,9,3,17,0.00
2014-5-27,92,83,75,75,72,63,89,71,45,29.85,29.74,9,3,14,0.00
2014-5-28,88,84,76,77,74,71,89,71,63,29.78,29.73,7,3,12,0.00
2014-5-29,88,88,88,74,74,74,63,63,63,29.77,29.77,4,4,8,0.00
2014-5-30,88,88,88,74,74,74,63,63,63,29.77,29.77,4,4,8,0.00
2014-5-31,88,88,88,74,74,74,63,63,63,29.77,29.77,4,4,8,0.00
2014-6-1,88,88,88,74,74,74,63,63,63,29.77,29.77,4,4,8,0.00
2014-6-2,88,88,88,74,74,74,63,63,63,29.77,29.77,4,4,8,0.00
2014-6-3,88,88,88,74,74,74,63,63,63,29.77,29.77,4,4,8,0.00
2014-6-4,88,88,88,74,74,74,63,63,63,29.77,29.77,4,4,8,0.00
2014-6-5,88,88,88,74,74,74,63,63,63,29.77,29.77,4,4,8,0.00
2014-6-6,88,88,88,74,74,74,63,63,63,29.77,29.77,4,4,8,0.00
2014-6-7,88,88,88,74,74,74,63,63,63,29.77,29.77,4,4,8,0.00
2014-6-8,88,85,0,77,73,68,84,68,63,29.95,29.77,8,3,14,0.00
2014-6-9,94,81,73,78,73,67,94,76,54,29.94,29.83,11,2,16,0.00
2014-6-10,95,81,74,80,74,68,92,79,50,29.98,29.90,11,1,17,0.18
2014-6-11,93,80,73,80,74,71,96,83,57,29.96,29.88,12,1,19,0.20
2014-6-12,94,79,73,76,72,68,95,81,48,30.00,29.89,15,3,25,0.39
2014-6-13,93,79,72,79,74,67,97,86,59,30.01,29.91,21,2,27,0.44
2014-6-14,93,82,72,81,76,72,100,82,56,30.04,29.93,10,2,15,0.05
2014-6-15,94,85,77,80,77,74,92,77,58,30.06,29.96,10,3,17,0.01
2014-6-16,92,84,78,78,74,69,94,73,52,30.09,30.00,10,3,17,0.00
2014-6-17,86,78,72,75,73,70,100,83,66,30.10,29.99,12,2,21,0.37
2014-6-18,88,80,73,78,74,70,95,82,63,30.05,29.98,11,2,16,0.05
2014-6-19,92,79,73,79,73,68,95,83,55,30.06,29.97,14,2,21,0.28
2014-6-20,92,79,72,77,73,70,97,82,53,30.03,29.96,8,1,14,0.00
2014-6-21,95,80,73,78,74,67,95,84,50,29.98,29.88,18,2,31,0.61
2014-6-22,97,82,75,78,75,69,96,82,47,29.96,29.85,17,2,26,0.79
2014-6-23,97,85,75,80,76,72,96,75,50,30.04,29.89,8,2,17,0.00
2014-6-24,97,87,78,78,75,72,90,68,48,30.09,30.01,8,3,13,0.00
2014-6-25,97,86,77,80,77,74,92,76,54,30.08,29.98,9,2,17,0.01
2014-6-26,96,85,76,79,76,68,95,75,53,30.05,29.91,8,2,13,0.00
2014-6-27,98,85,78,82,76,32,94,76,56,30.07,29.95,9,2,17,0.34
2014-6-28,97,86,76,79,75,71,93,71,44,30.08,29.99,8,2,14,0.00
2014-6-29,100,86,78,77,74,69,89,69,43,30.07,29.96,13,2,19,0.00
2014-6-30,96,84,75,77,75,73,94,76,53,30.00,29.83,15,4,24,0.00
2014-7-1,91,83,78,77,75,71,92,78,54,29.88,29.75,11,4,17,0.00
2014-7-2,93,81,73,79,76,71,97,85,62,29.94,29.78,23,3,40,0.58
2014-7-3,97,86,79,81,76,68,94,75,46,30.05,29.92,12,3,27,0.00
2014-7-4,97,84,77,81,76,69,92,77,55,30.07,30.01,11,2,17,0.05
2014-7-5,95,83,76,80,76,73,94,79,57,30.07,29.99,8,1,15,0.00
2014-7-6,88,82,76,80,76,73,93,83,73,30.05,29.95,8,1,14,1.04
2014-7-7,95,84,77,82,77,74,96,79,59,30.05,29.94,7,2,11,0.28
2014-7-8,96,83,77,80,77,74,97,82,56,30.09,29.99,9,2,15,0.07
2014-7-9,96,80,73,82,76,72,100,90,53,30.08,30.00,11,1,17,1.29
2014-7-10,94,82,74,82,76,69,100,84,47,30.07,29.99,8,2,16,0.05
2014-7-11,95,86,78,80,77,75,95,75,53,30.08,29.99,8,3,17,0.00
2014-7-12,95,86,78,81,76,73,89,73,53,30.07,29.99,11,3,17,0.04
2014-7-13,95,86,81,80,77,74,87,74,54,30.04,29.97,11,3,17,0.04
2014-7-14,96,87,79,80,76,71,93,71,53,30.03,29.96,8,2,14,0.01
2014-7-15,95,84,78,81,76,73,92,79,55,29.98,29.90,10,1,17,0.17
2014-7-16,93,82,77,79,76,74,97,84,55,29.96,29.88,17,2,27,0.65
2014-7-17,92,81,74,80,76,72,100,85,57,30.01,29.89,18,2,27,0.66
2014-7-18,99,86,77,80,77,74,94,76,46,30.03,29.93,10,2,15,0.00
2014-7-19,95,86,77,82,77,75,95,75,56,30.02,29.93,8,2,11,0.00
2014-7-20,98,88,78,81,77,75,93,72,50,30.00,29.91,8,2,12,0.00
2014-7-21,98,85,80,79,77,74,88,77,53,29.99,29.92,12,2,18,0.00
2014-7-22,94,84,78,81,77,75,93,80,59,30.02,29.91,8,2,13,0.07
2014-7-23,95,84,78,82,78,75,96,82,60,30.03,29.94,11,2,18,0.70
2014-7-24,97,86,78,80,76,73,95,73,52,30.01,29.92,11,2,17,0.01
2014-7-25,98,87,77,80,77,74,93,73,51,30.03,29.94,8,2,13,0.00
2014-7-26,95,86,79,81,78,73,94,77,59,30.06,26.99,8,1,14,0.27
2014-7-27,98,88,78,80,76,73,92,69,48,30.04,29.97,8,2,16,0.00
2014-7-28,99,90,82,80,78,73,89,69,45,30.02,29.91,9,2,14,0.00
2014-7-29,101,87,80,81,77,70,92,75,40,29.96,29.86,11,2,17,0.26
2014-7-30,96,83,75,83,78,73,97,85,59,29.94,29.85,11,2,18,0.70
2014-7-31,96,83,79,80,77,74,95,83,53,29.95,29.87,10,2,17,0.00
2014-8-1,98,88,79,82,78,76,92,74,52,29.94,29.85,8,2,14,0.07
2014-8-2,97,86,79,82,78,75,95,78,54,29.91,29.81,8,2,12,0.22
2014-8-3,91,83,72,81,78,72,100,86,66,29.90,29.79,14,2,23,1.16
2014-8-4,88,80,75,79,76,74,100,91,72,29.96,29.80,14,3,24,0.50
2014-8-5,96,85,77,80,76,71,97,77,51,30.01,29.91,11,2,17,0.00
2014-8-6,97,87,78,80,77,74,92,73,50,30.00,29.92,8,2,12,0.00
2014-8-7,98,87,75,80,77,70,92,73,50,29.97,29.86,14,2,24,0.14
2014-8-8,99,86,78,82,77,75,95,77,52,29.99,29.90,9,2,14,0.02
2014-8-9,96,86,79,82,78,71,95,78,52,30.02,29.93,11,1,17,0.44
2014-8-10,98,87,78,82,77,71,97,73,50,30.01,29.92,8,2,14,0.00
2014-8-11,98,87,77,80,75,72,93,69,49,30.01,29.92,11,2,19,0.00
2014-8-12,97,87,79,79,76,72,90,70,51,29.98,29.89,10,2,17,0.00
2014-8-13,96,87,78,80,76,72,92,72,53,29.98,29.89,10,2,15,0.00
2014-8-14,99,85,78,80,78,74,100,80,52,29.99,29.91,11,2,19,0.77
2014-8-15,95,81,74,81,77,73,100,88,58,30.06,29.90,17,1,24,1.81
2014-8-16,98,83,76,84,77,71,100,82,51,30.04,29.93,11,2,17,0.01
2014-8-17,98,86,77,83,78,73,100,77,53,30.04,29.97,9,1,14,0.00
2014-8-18,99,88,77,82,77,75,97,72,47,30.02,29.90,9,2,13,0.00
2014-8-19,99,89,79,81,78,72,93,71,46,29.98,29.89,8,2,12,0.00
2014-8-20,99,89,78,81,78,71,92,71,50,30.03,29.91,8,2,13,0.00
2014-8-21,98,89,81,82,78,75,93,71,52,30.05,29.96,9,2,15,0.00
2014-8-22,98,90,81,82,78,75,92,69,52,30.04,29.90,8,2,14,0.00
2014-8-23,97,88,79,81,77,74,94,70,52,29.93,29.78,11,3,17,0.00
2014-8-24,99,89,78,80,76,72,94,68,45,29.81,29.66,10,2,15,0.00
2014-8-25,96,87,81,82,79,75,95,77,59,29.72,29.64,15,5,27,0.00
2014-8-26,94,88,83,77,74,69,78,64,52,29.83,29.69,16,7,25,0.00
2014-8-27,97,87,78,77,74,69,88,66,49,29.92,29.80,10,3,21,0.00
2014-8-28,96,87,82,81,77,74,83,73,56,29.96,29.86,9,2,15,0.00
2014-8-29,99,88,79,83,78,74,96,74,50,30.03,29.91,11,2,20,0.01
2014-8-30,97,89,82,80,78,71,82,71,54,30.04,29.96,10,4,20,0.00
2014-8-31,96,88,80,80,77,70,83,70,54,30.04,29.97,10,4,19,0.00
2014-9-1,98,89,84,79,76,72,82,68,50,30.03,29.95,11,3,16,0.00
2014-9-2,96,88,79,78,75,71,85,68,51,30.01,29.91,8,3,16,0.00
2014-9-3,93,84,78,80,75,71,91,75,53,29.98,29.88,8,2,17,0.33
2014-9-4,110,84,75,82,76,64,100,77,50,30.05,29.94,8,2,14,0.15
2014-9-5,96,87,79,84,78,75,97,77,58,30.04,29.94,8,2,17,0.06
2014-9-6,92,85,80,83,79,76,100,82,70,29.99,29.88,9,2,13,0.12
2014-9-7,95,86,79,81,77,70,94,74,46,29.96,29.88,9,2,16,0.00
2014-9-8,95,86,74,82,77,71,100,76,53,29.99,29.90,10,2,17,0.24
2014-9-9,96,87,81,80,77,74,86,73,54,29.98,29.89,8,3,20,0.00
2014-9-10,84,83,82,79,79,76,90,89,80,29.94,29.86,6,2,11,0.00
2014-9-11,83,83,83,79,79,79,89,89,89,29.94,29.86,2,2,7,0.00
2014-9-12,83,83,83,79,79,79,89,89,89,29.94,29.84,2,2,7,0.00
2014-9-13,96,83,75,79,77,71,100,82,52,30.01,29.88,11,3,19,0.40
2014-9-14,96,83,74,78,74,70,97,78,48,30.05,29.94,9,2,15,0.01
2014-9-15,95,86,76,80,76,72,97,73,51,30.06,29.97,8,2,15,0.00
2014-9-16,88,82,77,82,77,74,95,85,73,30.03,29.87,8,1,14,0.45
2014-9-17,95,82,74,77,74,70,96,79,48,29.92,29.77,13,2,19,0.00
2014-9-18,93,83,75,82,76,72,94,81,56,29.85,29.76,10,2,15,0.07
2014-9-19,95,80,75,81,77,72,100,89,54,29.87,29.78,14,1,21,0.57
2014-9-20,91,81,77,80,76,72,100,88,56,29.88,29.76,10,2,18,0.21
2014-9-21,95,81,72,80,75,70,100,83,46,29.95,29.83,19,2,28,1.55
2014-9-22,94,82,75,82,76,71,100,85,49,29.96,29.84,8,1,13,0.01
2014-9-23,87,80,75,79,75,72,100,84,64,29.94,29.82,14,2,25,0.05
2014-9-24,93,82,75,79,76,72,99,81,58,29.96,29.86,9,2,15,0.01
2014-9-25,92,83,78,81,78,75,95,85,66,29.96,29.86,9,2,15,0.20
2014-9-26,94,84,77,81,78,75,100,82,58,29.91,29.81,8,2,15,0.05
2014-9-27,94,86,79,80,77,74,92,76,60,29.90,29.81,11,3,17,0.11
2014-9-28,95,85,78,79,77,74,95,77,56,29.89,29.80,8,2,16,0.01
2014-9-29,95,84,76,79,76,74,97,79,55,29.85,29.71,8,2,14,0.19
2014-9-30,90,82,77,81,78,76,100,87,69,29.78,29.70,14,2,21,0.63
2014-10-1,96,85,78,82,78,74,100,79,54,29.89,29.75,9,2,17,0.04
2014-10-2,98,86,78,80,77,72,96,76,47,29.94,29.83,8,2,12,0.00
2014-10-3,95,84,76,81,77,73,100,80,52,29.94,29.83,10,1,14,0.52
2014-10-4,96,82,76,82,77,72,100,85,51,29.90,29.72,16,3,30,0.43
2014-10-5,90,78,68,76,66,60,94,68,40,29.90,29.79,9,4,15,0.00
2014-10-6,88,80,70,74,70,66,93,72,56,29.97,29.86,11,3,21,0.00
2014-10-7,88,82,77,77,74,71,90,76,61,30.00,29.90,8,2,14,0.00
2014-10-8,90,82,74,80,75,73,100,80,61,30.01,29.91,8,2,14,0.00
2014-10-9,90,84,76,77,74,68,91,73,56,29.97,29.88,11,4,22,0.00
2014-10-10,91,84,80,74,72,70,80,67,52,29.94,29.84,11,4,21,0.00
2014-10-11,92,84,80,76,72,69,79,68,52,29.92,29.84,11,3,16,0.00
2014-10-12,93,84,79,76,74,71,85,73,54,29.97,29.88,9,3,16,0.00
2014-10-13,92,85,81,77,74,71,80,70,58,29.98,29.90,12,5,21,0.00
2014-10-14,92,85,76,79,76,72,94,76,61,29.93,29.82,12,3,20,0.19
2014-10-15,92,81,76,81,77,74,100,89,64,29.91,29.79,8,1,12,0.46
2014-10-16,89,79,71,78,67,61,97,69,42,29.87,29.75,11,4,16,0.01
2014-10-17,89,76,66,66,60,53,87,61,31,29.89,29.79,8,2,13,0.00
2014-10-18,90,77,65,69,65,62,97,70,43,29.89,29.79,4,1,11,0.00
2014-10-19,90,79,69,70,67,64,94,68,44,29.92,29.84,8,2,14,0.00
2014-10-20,91,81,69,74,68,64,91,65,43,29.93,29.83,8,2,12,0.00
2014-10-21,84,79,74,78,73,69,94,84,72,29.88,29.79,14,2,21,0.05
2014-10-22,88,79,72,77,73,71,97,83,60,29.88,29.79,29,1,29,0.07
2014-10-23,80,76,73,78,73,69,100,89,72,29.85,29.77,11,4,17,0.17
2014-10-24,81,79,75,73,71,69,90,76,70,29.82,29.70,14,6,24,0.05
2014-10-25,86,76,69,70,65,61,87,70,44,29.84,29.75,11,5,21,0.00
2014-10-26,86,76,67,67,63,56,91,68,40,29.93,29.78,11,3,16,0.00
2014-10-27,87,75,64,68,64,61,90,69,50,29.99,29.88,8,2,14,0.00
2014-10-28,89,80,70,72,66,62,84,65,49,30.04,29.96,8,2,14,0.00
2014-10-29,91,82,75,71,67,63,79,61,42,30.00,29.88,8,2,12,0.00
2014-10-30,89,79,69,72,68,62,100,71,43,29.89,29.75,9,1,14,0.00
2014-10-31,89,78,67,72,67,54,96,71,48,29.79,29.65,11,3,19,0.00
2014-11-1,78,67,56,59,51,35,88,60,35,30.05,29.79,15,5,26,0.00
2014-11-2,72,61,52,51,42,36,69,52,28,30.17,30.05,11,6,17,0.00
2014-11-3,79,69,59,59,53,46,71,58,46,30.20,30.11,15,6,24,0.00
2014-11-4,82,76,72,63,58,52,64,54,43,30.16,30.04,14,6,23,0.00
2014-11-5,84,78,75,68,66,62,73,65,56,30.09,29.97,14,6,24,0.00
2014-11-6,87,79,70,67,64,59,83,63,42,30.03,29.87,10,2,17,0.00
2014-11-7,86,76,68,69,66,61,92,74,49,29.89,29.78,10,2,14,0.00
2014-11-8,88,77,66,74,68,65,100,76,51,29.84,29.72,9,2,15,0.00
2014-11-9,74,70,67,72,69,66,100,98,82,29.81,29.71,8,2,12,0.51
2014-11-10,79,70,65,71,66,64,100,90,66,29.84,29.76,10,3,15,0.47
2014-11-11,83,71,62,66,61,55,100,73,41,29.85,29.75,10,4,18,0.00
2014-11-12,86,73,62,67,63,59,91,72,48,29.92,29.82,10,4,14,0.00
2014-11-13,87,76,67,70,67,64,99,75,51,29.94,29.83,7,2,13,0.00
2014-11-14,87,73,64,69,63,51,100,75,31,30.00,29.86,7,2,13,0.00
2014-11-15,84,74,64,70,65,62,96,76,55,30.08,29.97,8,3,14,0.00
2014-11-16,87,79,74,74,70,65,86,73,58,30.09,29.95,10,3,15,0.00
2014-11-17,89,82,75,79,75,70,97,81,58,29.95,29.81,12,4,20,0.05
2014-11-18,78,68,56,75,65,54,96,89,81,30.11,29.86,14,5,23,0.04
2014-11-19,66,60,54,63,58,54,100,92,86,30.15,30.06,12,5,18,0.22
2014-11-20,79,70,62,66,62,59,91,76,61,30.11,29.99,13,5,22,0.00
2014-11-21,75,72,70,70,68,64,100,84,71,30.11,30.00,14,7,24,0.17
2014-11-22,83,77,75,75,72,68,96,83,69,30.10,29.97,14,7,24,0.05
2014-11-23,86,81,78,78,75,74,90,84,72,29.97,29.81,11,4,21,0.00
2014-11-24,91,83,78,80,78,75,100,85,63,29.95,29.83,10,3,15,0.00
2014-11-25,102,82,79,79,77,74,95,85,70,29.94,29.80,16,4,25,0.00
2014-11-26,82,70,58,78,65,47,100,85,60,30.10,29.81,14,6,24,0.56
2014-11-27,76,63,55,56,47,38,84,58,31,30.19,30.04,12,5,22,0.00
2014-11-28,71,61,52,53,49,43,82,66,52,30.17,30.05,12,7,20,0.00
2014-11-29,78,66,55,59,54,51,90,68,47,30.17,30.08,11,4,18,0.00
2014-11-30,80,74,70,65,58,54,70,57,43,30.19,30.10,12,5,23,0.00
2014-12-1,82,76,71,71,67,64,100,74,61,30.18,30.07,15,5,26,0.09
2014-12-2,81,75,69,73,69,67,100,82,71,30.07,29.98,11,5,20,0.09
2014-12-3,84,77,73,70,68,66,86,75,61,30.05,29.96,11,5,19,0.00
2014-12-4,84,77,71,72,70,68,94,77,64,30.05,29.97,14,5,21,0.01
2014-12-5,83,77,71,77,72,69,100,85,69,30.11,30.00,12,4,18,0.57
2014-12-6,83,75,67,71,66,63,94,75,54,30.11,29.99,9,2,14,0.00
2014-12-7,80,71,65,71,66,62,100,86,68,29.99,29.89,11,3,15,0.00
2014-12-8,80,68,60,66,61,58,100,81,51,29.99,29.88,8,3,14,0.00
2014-12-9,70,63,55,63,59,51,100,87,67,29.96,29.85,13,5,21,0.00
2014-12-10,76,57,49,51,42,34,88,60,32,30.07,29.95,13,4,20,0.00
2014-12-11,70,59,49,54,51,46,95,75,52,30.13,30.01,9,2,13,0.00
2014-12-12,68,60,53,55,48,36,90,67,32,30.16,30.03,9,3,14,0.00
2014-12-13,77,64,55,58,52,47,85,68,45,30.06,29.94,9,4,18,0.00
2014-12-14,78,65,57,55,50,44,81,59,41,30.02,29.91,7,2,11,0.00
2014-12-15,81,66,57,59,52,47,85,62,38,30.04,29.93,6,1,10,0.00
2014-12-16,82,66,57,58,55,52,89,70,42,30.11,30.02,7,1,10,0.00
2014-12-17,84,68,54,60,56,51,94,68,41,30.12,29.98,6,1,10,0.00
2014-12-18,82,68,58,64,58,54,97,73,45,30.09,29.95,7,2,11,0.00
2014-12-19,82,68,57,64,59,54,93,74,52,30.02,29.91,7,1,11,0.00
2014-12-20,82,69,58,69,61,56,100,78,53,30.02,29.91,11,1,15,0.01
2014-12-21,84,72,62,75,65,61,100,81,56,30.02,29.91,8,1,17,0.00
2014-12-22,86,76,64,74,69,63,100,81,57,29.95,29.82,9,2,16,0.00
2014-12-23,84,77,69,76,72,67,100,86,70,29.89,29.80,14,3,21,0.00
2014-12-24,86,79,76,77,75,72,96,86,70,29.88,29.79,12,5,20,0.00
2014-12-25,79,71,68,76,64,55,100,80,54,30.08,29.86,12,4,19,0.13
2014-12-26,77,71,66,76,68,60,100,91,73,30.11,30.02,5,2,9,0.17
2014-12-27,87,76,69,79,72,69,100,87,57,30.15,30.04,7,1,11,0.00
2014-12-28,87,75,65,77,70,64,100,85,61,30.09,29.98,8,1,14,0.00
2014-12-29,86,77,69,78,72,69,100,86,62,30.05,29.96,9,2,17,0.04
2014-12-30,88,77,69,75,70,68,100,82,54,30.10,29.98,6,1,10,0.00
2014-12-31,82,74,71,74,72,70,100,92,69,30.13,30.01,8,2,11,0.00
2015-1-1,80,74,70,76,73,70,100,95,80,30.11,30.01,5,1,10,0.26
2015-1-2,85,78,73,76,74,72,100,86,71,30.15,30.06,11,3,17,0.07